Hyundai Republic — A8IL3 — position and weather

sailwx.info

Track history (hours):
 
Tides and Currents Weather Stations Pressure Air Temp Water Temp Dewpoint Dewpoint Depression Visibility Wind Speed Wind Dir Waves Ship Positions

Hyundai Republic

Last reported at 2015-Dec-12 10:26 UTC. Time now 2016-Feb-06 02:58 UTC.
Position N 01°15' E 104°07'.
Warning: this ship's position is 55 days out of date.

Length 305 m; draft 8.3 m.

Type: Ship (hazmat cat A). MMSI: 636090994.

Date/timePositionNaut miles runAvg speedWind from/ knotsBaromVisibWave heightAir tempDewpointWater temp
2015-Dec-12 10:26N 01°15' E 104°07'1213.4
2015-Dec-12 09:33N 01°13' E 103°55'9 9.0
2015-Dec-12 08:34N 01°15' E 103°47'2 1.6
2015-Dec-12 07:32N 01°16' E 103°46'0 0.0
2015-Dec-12 06:29N 01°16' E 103°46'0 0.0
2015-Dec-12 05:32N 01°16' E 103°46'5 5.0
2015-Dec-12 04:32N 01°13' E 103°50'6 6.3
2015-Dec-12 03:33N 01°17' E 103°54'0 0.1
2015-Dec-12 02:30N 01°17' E 103°54'0 0.0
2015-Dec-12 00:30N 01°17' E 103°54'0 0.0
2015-Dec-11 23:15N 01°17' E 103°54'0 0.0
2015-Dec-11 21:12N 01°17' E 103°54'0 0.0
2015-Dec-11 20:33N 01°17' E 103°54'0 0.0
2015-Dec-11 19:29N 01°17' E 103°54'0 0.0
2015-Dec-11 18:29N 01°17' E 103°54'0 0.0
2015-Dec-11 17:11N 01°17' E 103°54'0 0.0
2015-Dec-11 13:05N 01°17' E 103°54'0 0.0
2015-Dec-11 11:08N 01°17' E 103°54'0 0.1
2015-Dec-11 06:26N 01°17' E 103°54'0 0.1
2015-Dec-11 02:23N 01°17' E 103°54'0 0.0
2015-Dec-10 22:32N 01°17' E 103°54'0 0.0
2015-Dec-10 21:32N 01°17' E 103°54'0 0.0
2015-Dec-10 19:26N 01°17' E 103°54'0 0.0
2015-Dec-10 18:23N 01°17' E 103°54'0 0.0
2015-Dec-10 17:23N 01°17' E 103°54'0 0.0
2015-Dec-10 08:23N 01°17' E 103°54'0 0.0
2015-Dec-10 07:32N 01°17' E 103°54'0 0.1
2015-Dec-10 06:19N 01°17' E 103°54'0 0.2
2015-Dec-10 05:31N 01°17' E 103°54'0 0.2
2015-Dec-10 04:28N 01°17' E 103°54'0 0.1
2015-Dec-10 03:13N 01°17' E 103°54'0 0.0
2015-Dec-10 01:22N 01°17' E 103°54'0 0.0
2015-Dec-09 22:31N 01°17' E 103°54'0 0.0
2015-Dec-09 21:22N 01°17' E 103°54'0 0.0
2015-Dec-09 19:04N 01°17' E 103°54'0 0.0
2015-Dec-09 11:25N 01°17' E 103°54'0 0.0
2015-Dec-09 10:25N 01°17' E 103°54'0 0.1
2015-Dec-09 09:10N 01°17' E 103°54'0 0.1
2015-Dec-09 08:31N 01°17' E 103°54'0 0.1
2015-Dec-09 07:22N 01°17' E 103°54'0 0.0
2015-Dec-09 06:28N 01°17' E 103°54'0 0.1
2015-Dec-09 03:25N 01°17' E 103°54'0 0.2
2015-Dec-09 02:31N 01°17' E 103°54'0 0.0
2015-Dec-08 23:25N 01°17' E 103°54'0 0.0
2015-Dec-08 21:22N 01°17' E 103°54'0 0.0
2015-Dec-08 19:31N 01°17' E 103°54'0 0.0
2015-Dec-08 18:31N 01°17' E 103°54'0 0.0
2015-Dec-08 17:25N 01°17' E 103°54'0 0.0
2015-Dec-08 16:22N 01°17' E 103°54'0 0.1
2015-Dec-08 15:24N 01°17' E 103°54'0 0.0
2015-Dec-08 12:21N 01°17' E 103°54'0 0.0
2015-Dec-08 11:33N 01°17' E 103°54'0 0.0
2015-Dec-08 09:15N 01°17' E 103°54'0 0.1
2015-Dec-08 06:33N 01°17' E 103°54'0 0.0
2015-Dec-08 05:18N 01°17' E 103°54'0 0.1
2015-Dec-08 04:30N 01°17' E 103°54'0 0.1
2015-Dec-08 03:06N 01°17' E 103°54'0 0.1
2015-Dec-08 02:21N 01°17' E 103°54'0 0.1
2015-Dec-08 01:12N 01°17' E 103°54'0 0.0
2015-Dec-07 22:21N 01°17' E 103°54'0 0.0
2015-Dec-07 21:27N 01°17' E 103°54'0 0.0
2015-Dec-07 20:30N 01°17' E 103°54'0 0.0
2015-Dec-07 19:33N 01°17' E 103°54'0 0.1
2015-Dec-07 18:21N 01°17' E 103°54'0 0.1
2015-Dec-07 17:24N 01°17' E 103°54'0 0.0
2015-Dec-07 16:21N 01°17' E 103°54'0 0.0
2015-Dec-07 12:09N 01°17' E 103°54'0 0.0
2015-Dec-07 11:33N 01°17' E 103°54'0 0.1
2015-Dec-07 10:27N 01°17' E 103°54'0 0.0
2015-Dec-07 09:30N 01°17' E 103°54'0 0.0
2015-Dec-07 07:09N 01°17' E 103°54'0 0.0
2015-Dec-07 06:27N 01°17' E 103°54'0 0.0
2015-Dec-07 05:09N 01°17' E 103°54'0 0.0
2015-Dec-07 04:33N 01°17' E 103°54'0 0.0
2015-Dec-07 03:33N 01°17' E 103°54'0 0.1
2015-Dec-07 02:26N 01°17' E 103°54'0 0.0
2015-Dec-07 01:08N 01°17' E 103°54'0 0.0
2015-Dec-07 00:32N 01°17' E 103°54'0 0.0
2015-Dec-06 23:32N 01°17' E 103°54'0 0.0
2015-Dec-06 22:17N 01°17' E 103°54'0 0.0
2015-Dec-06 20:26N 01°17' E 103°54'0 0.0
2015-Dec-06 19:23N 01°17' E 103°54'0 0.0
2015-Dec-06 18:08N 01°17' E 103°54'0 0.0
2015-Dec-06 16:14N 01°17' E 103°54'0 0.0
2015-Dec-06 14:20N 01°17' E 103°54'0 0.0
2015-Dec-06 13:23N 01°17' E 103°54'0 0.0
2015-Dec-06 12:26N 01°17' E 103°54'0 0.0
2015-Dec-06 11:29N 01°17' E 103°54'0 0.1
2015-Dec-06 10:26N 01°17' E 103°54'0 0.0
2015-Dec-06 08:17N 01°17' E 103°54'0 0.0
2015-Dec-06 06:29N 01°17' E 103°54'0 0.2
2015-Dec-06 05:26N 01°17' E 103°54'0 0.1
2015-Dec-06 02:14N 01°17' E 103°54'0 0.0
2015-Dec-06 00:32N 01°17' E 103°54'0 0.0
2015-Dec-05 19:26N 01°17' E 103°54'0 0.0
2015-Dec-05 18:26N 01°17' E 103°54'0 0.1
2015-Dec-05 17:08N 01°17' E 103°54'0 0.0
2015-Dec-05 15:26N 01°17' E 103°54'0 0.0
2015-Dec-05 13:32N 01°17' E 103°54'0 0.1
2015-Dec-05 11:31N 01°17' E 103°54'0 0.0
2015-Dec-05 10:31N 01°17' E 103°54'0 0.1
2015-Dec-05 09:19N 01°17' E 103°54'0 0.1
2015-Dec-05 07:16N 01°17' E 103°54'0 0.0
2015-Dec-05 05:13N 01°17' E 103°54'0 0.1
2015-Dec-05 04:28N 01°17' E 103°54'0 0.1
2015-Dec-05 03:19N 01°17' E 103°54'0 0.0
2015-Dec-05 02:31N 01°17' E 103°54'0 0.0
2015-Dec-05 00:25N 01°17' E 103°54'0 0.0
2015-Dec-04 23:31N 01°17' E 103°54'0 0.0
2015-Dec-04 21:25N 01°17' E 103°54'0 0.0
2015-Dec-04 20:31N 01°17' E 103°54'0 0.0
2015-Dec-04 19:19N 01°17' E 103°54'0 0.0
2015-Dec-04 18:28N 01°17' E 103°54'0 0.0
2015-Dec-04 17:25N 01°17' E 103°54'0 0.0
2015-Dec-04 15:19N 01°17' E 103°54'0 0.0
2015-Dec-04 14:16N 01°17' E 103°54'0 0.0
2015-Dec-04 05:28N 01°17' E 103°54'0 0.0
2015-Dec-04 04:31N 01°17' E 103°54'0 0.0
2015-Dec-04 03:10N 01°17' E 103°54'0 0.1
2015-Dec-04 02:13N 01°17' E 103°54'0 0.0
2015-Dec-04 01:31N 01°17' E 103°54'0 0.0
2015-Dec-04 00:04N 01°17' E 103°54'0 0.0
2015-Dec-03 23:30N 01°17' E 103°54'0 0.0
2015-Dec-03 21:27N 01°17' E 103°54'0 0.0
2015-Dec-03 19:24N 01°17' E 103°54'0 0.0
2015-Dec-03 18:30N 01°17' E 103°54'0 0.0
2015-Dec-03 16:30N 01°17' E 103°54'0 0.1
2015-Dec-03 15:21N 01°17' E 103°54'0 0.0
2015-Dec-03 11:09N 01°17' E 103°54'0 0.0
2015-Dec-03 09:30N 01°17' E 103°54'0 0.0
2015-Dec-03 08:30N 01°17' E 103°54'0 0.1
2015-Dec-03 07:24N 01°17' E 103°54'5 6.1
2015-Dec-03 06:33N 01°12' E 103°51'6 6.5
2015-Dec-03 05:33N 01°16' E 103°46'0 0.0
2015-Dec-03 03:32N 01°16' E 103°46'0 0.0
2015-Dec-03 01:32N 01°16' E 103°46'0 0.0
2015-Dec-03 00:26N 01°16' E 103°46'0 0.0
2015-Dec-02 23:29N 01°16' E 103°46'0 0.0
2015-Dec-02 22:11N 01°16' E 103°46'0 0.1
2015-Dec-02 21:31N 01°16' E 103°46'0 0.0
2015-Dec-02 20:03N 01°16' E 103°46'0 0.0
2015-Dec-02 18:03N 01°16' E 103°46'0 0.0
2015-Dec-02 17:18N 01°16' E 103°46'0 0.0
2015-Dec-02 16:30N 01°16' E 103°46'0 0.0
2015-Dec-02 15:33N 01°16' E 103°46'0 0.0
2015-Dec-02 14:33N 01°16' E 103°46'0 0.0
2015-Dec-02 13:33N 01°16' E 103°46'0 0.0
2015-Dec-02 12:21N 01°16' E 103°46'0 0.0
2015-Dec-02 11:33N 01°16' E 103°46'0 0.0
2015-Dec-02 10:27N 01°16' E 103°46'  
Track history (hours):
 
Tides and Currents Weather Stations Pressure Air Temp Water Temp Dewpoint Dewpoint Depression Visibility Wind Speed Wind Dir Waves Ship Positions

Hyundai Republic

Last reported at 2015-Dec-12 10:26 UTC. Time now 2016-Feb-06 02:58 UTC.
Position N 01°15' E 104°07'.
Warning: this ship's position is 55 days out of date.

Length 305 m; draft 8.3 m.

Type: Ship (hazmat cat A). MMSI: 636090994.

Date/timePositionNaut miles runAvg speedWind from/ knotsBaromVisibWave heightAir tempDewpointWater temp
2015-Dec-12 10:26N 01°15' E 104°07'1213.4
2015-Dec-12 09:33N 01°13' E 103°55'9 9.0
2015-Dec-12 08:34N 01°15' E 103°47'2 1.6
2015-Dec-12 07:32N 01°16' E 103°46'0 0.0
2015-Dec-12 06:29N 01°16' E 103°46'0 0.0
2015-Dec-12 05:32N 01°16' E 103°46'5 5.0
2015-Dec-12 04:32N 01°13' E 103°50'6 6.3
2015-Dec-12 03:33N 01°17' E 103°54'0 0.1
2015-Dec-12 02:30N 01°17' E 103°54'0 0.0
2015-Dec-12 00:30N 01°17' E 103°54'0 0.0
2015-Dec-11 23:15N 01°17' E 103°54'0 0.0
2015-Dec-11 21:12N 01°17' E 103°54'0 0.0
2015-Dec-11 20:33N 01°17' E 103°54'0 0.0
2015-Dec-11 19:29N 01°17' E 103°54'0 0.0
2015-Dec-11 18:29N 01°17' E 103°54'0 0.0
2015-Dec-11 17:11N 01°17' E 103°54'0 0.0
2015-Dec-11 13:05N 01°17' E 103°54'0 0.0
2015-Dec-11 11:08N 01°17' E 103°54'0 0.1
2015-Dec-11 06:26N 01°17' E 103°54'0 0.1
2015-Dec-11 02:23N 01°17' E 103°54'0 0.0
2015-Dec-10 22:32N 01°17' E 103°54'0 0.0
2015-Dec-10 21:32N 01°17' E 103°54'0 0.0
2015-Dec-10 19:26N 01°17' E 103°54'0 0.0
2015-Dec-10 18:23N 01°17' E 103°54'0 0.0
2015-Dec-10 17:23N 01°17' E 103°54'0 0.0
2015-Dec-10 08:23N 01°17' E 103°54'0 0.0
2015-Dec-10 07:32N 01°17' E 103°54'0 0.1
2015-Dec-10 06:19N 01°17' E 103°54'0 0.2
2015-Dec-10 05:31N 01°17' E 103°54'0 0.2
2015-Dec-10 04:28N 01°17' E 103°54'0 0.1
2015-Dec-10 03:13N 01°17' E 103°54'0 0.0
2015-Dec-10 01:22N 01°17' E 103°54'0 0.0
2015-Dec-09 22:31N 01°17' E 103°54'0 0.0
2015-Dec-09 21:22N 01°17' E 103°54'0 0.0
2015-Dec-09 19:04N 01°17' E 103°54'0 0.0
2015-Dec-09 11:25N 01°17' E 103°54'0 0.0
2015-Dec-09 10:25N 01°17' E 103°54'0 0.1
2015-Dec-09 09:10N 01°17' E 103°54'0 0.1
2015-Dec-09 08:31N 01°17' E 103°54'0 0.1
2015-Dec-09 07:22N 01°17' E 103°54'0 0.0
2015-Dec-09 06:28N 01°17' E 103°54'0 0.1
2015-Dec-09 03:25N 01°17' E 103°54'0 0.2
2015-Dec-09 02:31N 01°17' E 103°54'0 0.0
2015-Dec-08 23:25N 01°17' E 103°54'0 0.0
2015-Dec-08 21:22N 01°17' E 103°54'0 0.0
2015-Dec-08 19:31N 01°17' E 103°54'0 0.0
2015-Dec-08 18:31N 01°17' E 103°54'0 0.0
2015-Dec-08 17:25N 01°17' E 103°54'0 0.0
2015-Dec-08 16:22N 01°17' E 103°54'0 0.1
2015-Dec-08 15:24N 01°17' E 103°54'0 0.0
2015-Dec-08 12:21N 01°17' E 103°54'0 0.0
2015-Dec-08 11:33N 01°17' E 103°54'0 0.0
2015-Dec-08 09:15N 01°17' E 103°54'0 0.1
2015-Dec-08 06:33N 01°17' E 103°54'0 0.0
2015-Dec-08 05:18N 01°17' E 103°54'0 0.1
2015-Dec-08 04:30N 01°17' E 103°54'0 0.1
2015-Dec-08 03:06N 01°17' E 103°54'0 0.1
2015-Dec-08 02:21N 01°17' E 103°54'0 0.1
2015-Dec-08 01:12N 01°17' E 103°54'0 0.0
2015-Dec-07 22:21N 01°17' E 103°54'0 0.0
2015-Dec-07 21:27N 01°17' E 103°54'0 0.0
2015-Dec-07 20:30N 01°17' E 103°54'0 0.0
2015-Dec-07 19:33N 01°17' E 103°54'0 0.1
2015-Dec-07 18:21N 01°17' E 103°54'0 0.1
2015-Dec-07 17:24N 01°17' E 103°54'0 0.0
2015-Dec-07 16:21N 01°17' E 103°54'0 0.0
2015-Dec-07 12:09N 01°17' E 103°54'0 0.0
2015-Dec-07 11:33N 01°17' E 103°54'0 0.1
2015-Dec-07 10:27N 01°17' E 103°54'0 0.0
2015-Dec-07 09:30N 01°17' E 103°54'0 0.0
2015-Dec-07 07:09N 01°17' E 103°54'0 0.0
2015-Dec-07 06:27N 01°17' E 103°54'0 0.0
2015-Dec-07 05:09N 01°17' E 103°54'0 0.0
2015-Dec-07 04:33N 01°17' E 103°54'0 0.0
2015-Dec-07 03:33N 01°17' E 103°54'0 0.1
2015-Dec-07 02:26N 01°17' E 103°54'0 0.0
2015-Dec-07 01:08N 01°17' E 103°54'0 0.0
2015-Dec-07 00:32N 01°17' E 103°54'0 0.0
2015-Dec-06 23:32N 01°17' E 103°54'0 0.0
2015-Dec-06 22:17N 01°17' E 103°54'0 0.0
2015-Dec-06 20:26N 01°17' E 103°54'0 0.0
2015-Dec-06 19:23N 01°17' E 103°54'0 0.0
2015-Dec-06 18:08N 01°17' E 103°54'0 0.0
2015-Dec-06 16:14N 01°17' E 103°54'0 0.0
2015-Dec-06 14:20N 01°17' E 103°54'0 0.0
2015-Dec-06 13:23N 01°17' E 103°54'0 0.0
2015-Dec-06 12:26N 01°17' E 103°54'0 0.0
2015-Dec-06 11:29N 01°17' E 103°54'0 0.1
2015-Dec-06 10:26N 01°17' E 103°54'0 0.0
2015-Dec-06 08:17N 01°17' E 103°54'0 0.0
2015-Dec-06 06:29N 01°17' E 103°54'0 0.2
2015-Dec-06 05:26N 01°17' E 103°54'0 0.1
2015-Dec-06 02:14N 01°17' E 103°54'0 0.0
2015-Dec-06 00:32N 01°17' E 103°54'0 0.0
2015-Dec-05 19:26N 01°17' E 103°54'0 0.0
2015-Dec-05 18:26N 01°17' E 103°54'0 0.1
2015-Dec-05 17:08N 01°17' E 103°54'0 0.0
2015-Dec-05 15:26N 01°17' E 103°54'0 0.0
2015-Dec-05 13:32N 01°17' E 103°54'0 0.1
2015-Dec-05 11:31N 01°17' E 103°54'0 0.0
2015-Dec-05 10:31N 01°17' E 103°54'0 0.1
2015-Dec-05 09:19N 01°17' E 103°54'0 0.1
2015-Dec-05 07:16N 01°17' E 103°54'0 0.0
2015-Dec-05 05:13N 01°17' E 103°54'0 0.1
2015-Dec-05 04:28N 01°17' E 103°54'0 0.1
2015-Dec-05 03:19N 01°17' E 103°54'0 0.0
2015-Dec-05 02:31N 01°17' E 103°54'0 0.0
2015-Dec-05 00:25N 01°17' E 103°54'0 0.0
2015-Dec-04 23:31N 01°17' E 103°54'0 0.0
2015-Dec-04 21:25N 01°17' E 103°54'0 0.0
2015-Dec-04 20:31N 01°17' E 103°54'0 0.0
2015-Dec-04 19:19N 01°17' E 103°54'0 0.0
2015-Dec-04 18:28N 01°17' E 103°54'0 0.0
2015-Dec-04 17:25N 01°17' E 103°54'0 0.0
2015-Dec-04 15:19N 01°17' E 103°54'0 0.0
2015-Dec-04 14:16N 01°17' E 103°54'0 0.0
2015-Dec-04 05:28N 01°17' E 103°54'0 0.0
2015-Dec-04 04:31N 01°17' E 103°54'0 0.0
2015-Dec-04 03:10N 01°17' E 103°54'0 0.1
2015-Dec-04 02:13N 01°17' E 103°54'0 0.0
2015-Dec-04 01:31N 01°17' E 103°54'0 0.0
2015-Dec-04 00:04N 01°17' E 103°54'0 0.0
2015-Dec-03 23:30N 01°17' E 103°54'0 0.0
2015-Dec-03 21:27N 01°17' E 103°54'0 0.0
2015-Dec-03 19:24N 01°17' E 103°54'0 0.0
2015-Dec-03 18:30N 01°17' E 103°54'0 0.0
2015-Dec-03 16:30N 01°17' E 103°54'0 0.1
2015-Dec-03 15:21N 01°17' E 103°54'0 0.0
2015-Dec-03 11:09N 01°17' E 103°54'0 0.0
2015-Dec-03 09:30N 01°17' E 103°54'0 0.0
2015-Dec-03 08:30N 01°17' E 103°54'0 0.1
2015-Dec-03 07:24N 01°17' E 103°54'5 6.1
2015-Dec-03 06:33N 01°12' E 103°51'6 6.5
2015-Dec-03 05:33N 01°16' E 103°46'0 0.0
2015-Dec-03 03:32N 01°16' E 103°46'0 0.0
2015-Dec-03 01:32N 01°16' E 103°46'0 0.0
2015-Dec-03 00:26N 01°16' E 103°46'0 0.0
2015-Dec-02 23:29N 01°16' E 103°46'0 0.0
2015-Dec-02 22:11N 01°16' E 103°46'0 0.1
2015-Dec-02 21:31N 01°16' E 103°46'0 0.0
2015-Dec-02 20:03N 01°16' E 103°46'0 0.0
2015-Dec-02 18:03N 01°16' E 103°46'0 0.0
2015-Dec-02 17:18N 01°16' E 103°46'0 0.0
2015-Dec-02 16:30N 01°16' E 103°46'0 0.0
2015-Dec-02 15:33N 01°16' E 103°46'0 0.0
2015-Dec-02 14:33N 01°16' E 103°46'0 0.0
2015-Dec-02 13:33N 01°16' E 103°46'0 0.0
2015-Dec-02 12:21N 01°16' E 103°46'0 0.0
2015-Dec-02 11:33N 01°16' E 103°46'0 0.0
2015-Dec-02 10:27N 01°16' E 103°46'  

Dump ship's entire track history